createdAt,value
2022-11-03T00:01:50.967Z,101549.34
2022-11-03T00:04:21.318Z,101543.53
2022-11-03T00:06:54.503Z,101538.53
2022-11-03T00:09:23.679Z,101543.59
2022-11-03T00:11:52.160Z,101542.78
2022-11-03T00:14:20.807Z,101542.78
2022-11-03T00:16:48.648Z,101548.53
2022-11-03T00:19:17.648Z,101543.25
2022-11-03T00:21:45.994Z,101552.34
2022-11-03T00:24:13.992Z,101552.34
2022-11-03T00:26:41.834Z,101546.47
2022-11-03T00:29:14.424Z,101545.63
2022-11-03T00:31:44.259Z,101548.47
2022-11-03T00:34:12.845Z,101543.47
2022-11-03T00:36:43.132Z,101543.47
2022-11-03T00:39:11.676Z,101533.84
2022-11-03T00:41:40.254Z,101540.44
2022-11-03T00:44:10.686Z,101549.28
2022-11-03T00:46:38.914Z,101543.75
2022-11-03T00:49:06.850Z,101540.03
2022-11-03T00:51:37.577Z,101542.47
2022-11-03T00:54:07.400Z,101536.94
2022-11-03T00:56:38.015Z,101535.25
2022-11-03T00:59:07.429Z,101538.56
2022-11-03T01:01:45.344Z,101545.03
2022-11-03T01:04:35.473Z,101535.47
2022-11-03T01:07:07.791Z,101532.16
2022-11-03T01:09:38.896Z,101536.09
2022-11-03T01:12:13.821Z,101531.34
2022-11-03T01:14:46.672Z,101522.19
2022-11-03T01:17:24.172Z,101521.34
2022-11-03T01:19:52.432Z,101522.19
2022-11-03T01:22:21.816Z,101516.38
2022-11-03T01:24:49.643Z,101518.91
2022-11-03T01:27:20.904Z,101509.78
2022-11-03T01:29:48.900Z,101505.91
2022-11-03T01:32:16.903Z,101510.06
2022-11-03T01:34:44.788Z,101502.16
2022-11-03T01:37:12.618Z,101507.31
2022-11-03T01:39:40.370Z,101508.44
2022-11-03T01:42:13.613Z,101499.09
2022-11-03T01:44:48.934Z,101496.97
2022-11-03T01:47:30.270Z,101493.38
2022-11-03T01:50:03.099Z,101488.66
2022-11-03T01:52:47.789Z,101486.88
2022-11-03T01:55:29.804Z,101481.28
2022-11-03T01:58:06.050Z,101479.13
2022-11-03T02:00:35.119Z,101477.25
2022-11-03T02:03:03.765Z,101476.66
2022-11-03T02:05:31.879Z,101467.59
2022-11-03T02:10:38.070Z,101469.50
2022-11-03T02:13:18.386Z,101459.41
2022-11-03T02:15:49.299Z,101461.06
2022-11-03T02:18:20.463Z,101450.59
2022-11-03T02:20:58.977Z,101452.81
2022-11-03T02:23:37.852Z,101460.59
2022-11-03T02:26:08.336Z,101461.22
2022-11-03T02:28:36.390Z,101462.97
2022-11-03T02:31:23.908Z,101459.16
2022-11-03T02:34:08.952Z,101459.16
2022-11-03T02:37:30.821Z,101445.75
2022-11-03T02:40:22.351Z,101454.34
2022-11-03T02:42:52.947Z,101452.44
2022-11-03T02:45:25.631Z,101455.25
2022-11-03T02:47:57.736Z,101461.06
2022-11-03T02:50:30.538Z,101461.63
2022-11-03T02:52:59.030Z,101471.00
2022-11-03T02:55:35.724Z,101461.66
2022-11-03T02:58:32.654Z,101454.50
2022-11-03T03:01:15.283Z,101460.78
2022-11-03T03:03:53.022Z,101460.78
2022-11-03T03:06:34.336Z,101471.06
2022-11-03T03:09:07.619Z,101462.06
2022-11-03T03:11:38.398Z,101449.44
2022-11-03T03:14:16.927Z,101450.81
2022-11-03T03:16:54.759Z,101450.59
2022-11-03T03:19:38.569Z,101443.72
2022-11-03T03:22:24.499Z,101439.00
2022-11-03T03:25:14.982Z,101443.72
2022-11-03T03:27:49.098Z,101440.41
2022-11-03T03:30:17.931Z,101438.25
2022-11-03T03:32:49.395Z,101439.88
2022-11-03T03:35:28.087Z,101433.03
2022-11-03T03:38:04.610Z,101427.25
2022-11-03T03:40:39.048Z,101434.47
2022-11-03T03:43:10.238Z,101428.41
2022-11-03T03:45:38.938Z,101437.78
2022-11-03T03:48:07.613Z,101449.13
2022-11-03T03:50:40.174Z,101444.19
2022-11-03T03:53:11.836Z,101443.66
2022-11-03T03:55:43.458Z,101445.34
2022-11-03T03:58:14.112Z,101444.84
2022-11-03T04:00:42.867Z,101445.09
2022-11-03T04:03:17.984Z,101450.00
2022-11-03T04:05:46.564Z,101444.25
2022-11-03T04:08:15.724Z,101454.47
2022-11-03T04:11:02.709Z,101458.56
2022-11-03T04:13:49.433Z,101459.63
2022-11-03T04:16:35.553Z,101451.09
2022-11-03T04:19:21.970Z,101448.06
2022-11-03T04:22:08.399Z,101440.03
2022-11-03T04:24:36.366Z,101444.97
2022-11-03T04:27:33.181Z,101440.06
2022-11-03T04:30:17.627Z,101441.22
2022-11-03T04:32:48.053Z,101444.00
2022-11-03T04:35:18.654Z,101439.59
2022-11-03T04:37:51.761Z,101424.19
2022-11-03T04:40:19.667Z,101431.59
2022-11-03T04:42:47.740Z,101429.69
2022-11-03T04:45:28.821Z,101427.78
2022-11-03T04:47:59.768Z,101420.59
2022-11-03T04:50:27.880Z,101411.44
2022-11-03T04:52:58.245Z,101419.75
2022-11-03T04:55:27.062Z,101411.44
2022-11-03T04:57:58.733Z,101406.81
2022-11-03T05:00:26.651Z,101407.72
2022-11-03T05:02:56.197Z,101412.16
2022-11-03T05:05:26.698Z,101397.00
2022-11-03T05:07:57.058Z,101392.63
2022-11-03T05:10:26.645Z,101397.34
2022-11-03T05:12:55.296Z,101402.28
2022-11-03T05:15:36.198Z,101397.13
2022-11-03T05:18:31.639Z,101409.44
2022-11-03T05:21:09.622Z,101406.69
2022-11-03T05:23:51.134Z,101403.13
2022-11-03T05:26:24.814Z,101399.00
2022-11-03T05:29:00.041Z,101401.75
2022-11-03T05:31:28.973Z,101399.25
2022-11-03T05:34:02.722Z,101389.38
2022-11-03T05:36:33.334Z,101373.06
2022-11-03T05:39:31.474Z,101382.00
2022-11-03T05:42:00.351Z,101384.44
2022-11-03T05:44:37.961Z,101376.25
2022-11-03T05:47:36.466Z,101373.06
2022-11-03T05:50:25.666Z,101370.94
2022-11-03T05:53:19.778Z,101378.25
2022-11-03T05:55:47.647Z,101371.94
2022-11-03T05:58:25.908Z,101370.63
2022-11-03T06:00:54.876Z,101379.38
2022-11-03T06:03:29.455Z,101373.94
2022-11-03T06:05:58.860Z,101378.66
2022-11-03T06:08:33.900Z,101386.38
2022-11-03T06:11:03.910Z,101391.88
2022-11-03T06:13:37.710Z,101380.75
2022-11-03T06:16:37.973Z,101380.47
2022-11-03T06:19:22.259Z,101372.53
2022-11-03T06:21:51.823Z,101374.22
2022-11-03T06:24:23.350Z,101381.44
2022-11-03T06:26:53.017Z,101384.13
2022-11-03T06:29:22.217Z,101384.38
2022-11-03T06:31:53.243Z,101387.28
2022-11-03T06:34:34.556Z,101392.34
2022-11-03T06:37:13.735Z,101407.94
2022-11-03T06:39:42.002Z,101399.88
2022-11-03T06:42:15.255Z,101409.91
2022-11-03T06:44:47.796Z,101413.91
2022-11-03T06:47:24.454Z,101419.16
2022-11-03T06:49:54.676Z,101414.84
2022-11-03T06:52:30.895Z,101416.16
2022-11-03T06:55:12.101Z,101419.25
2022-11-03T06:57:46.513Z,101410.25
2022-11-03T07:00:34.560Z,101412.16
2022-11-03T07:03:09.833Z,101410.75
2022-11-03T07:05:39.029Z,101426.66
2022-11-03T07:08:29.391Z,101431.28
2022-11-03T07:10:59.990Z,101424.56
2022-11-03T07:13:29.297Z,101422.94
2022-11-03T07:15:57.082Z,101418.53
2022-11-03T07:18:39.785Z,101417.84
2022-11-03T07:21:20.216Z,101417.50
2022-11-03T07:23:48.105Z,101413.84
2022-11-03T07:26:16.127Z,101419.94
2022-11-03T07:28:44.127Z,101423.66
2022-11-03T07:31:20.521Z,101418.75
2022-11-03T07:33:48.702Z,101414.84
2022-11-03T07:36:21.053Z,101423.38
2022-11-03T07:38:52.591Z,101425.22
2022-11-03T07:41:24.398Z,101419.66
2022-11-03T07:43:56.266Z,101422.06
2022-11-03T07:46:25.408Z,101413.97
2022-11-03T07:49:02.913Z,101413.06
2022-11-03T07:51:37.677Z,101411.59
2022-11-03T07:54:08.702Z,101418.41
2022-11-03T07:56:52.270Z,101403.75
2022-11-03T07:59:29.547Z,101411.59
2022-11-03T08:01:58.952Z,101406.16
2022-11-03T08:04:29.851Z,101406.47
2022-11-03T08:06:57.955Z,101396.38
2022-11-03T08:09:25.850Z,101398.25
2022-11-03T08:11:53.930Z,101395.50
2022-11-03T08:14:21.777Z,101397.56
2022-11-03T08:16:49.747Z,101397.44
2022-11-03T08:19:17.711Z,101387.81
2022-11-03T08:21:45.923Z,101392.50
2022-11-03T08:24:13.805Z,101391.22
2022-11-03T08:26:41.549Z,101387.25
2022-11-03T08:29:10.161Z,101385.53
2022-11-03T08:31:37.986Z,101377.09
2022-11-03T08:34:05.807Z,101383.38
2022-11-03T08:36:33.884Z,101377.41
2022-11-03T08:39:01.629Z,101381.16
2022-11-03T08:41:29.430Z,101373.16
2022-11-03T08:43:57.551Z,101378.97
2022-11-03T08:46:25.384Z,101378.22
2022-11-03T08:48:53.290Z,101370.91
2022-11-03T08:51:21.176Z,101368.09
2022-11-03T08:53:54.200Z,101372.13
2022-11-03T08:56:22.686Z,101369.69
2022-11-03T08:58:50.763Z,101363.94
2022-11-03T09:01:18.920Z,101360.59
2022-11-03T09:03:47.082Z,101347.38
2022-11-03T09:06:15.101Z,101338.38
2022-11-03T09:11:30.670Z,101344.66
2022-11-03T09:13:58.503Z,101339.97
2022-11-03T09:16:26.752Z,101342.53
2022-11-03T09:18:54.660Z,101338.13
2022-11-03T09:21:22.759Z,101328.66
2022-11-03T09:23:50.682Z,101333.50
2022-11-03T09:26:19.144Z,101324.16
2022-11-03T09:28:47.204Z,101323.03
2022-11-03T09:31:15.485Z,101327.00
2022-11-03T09:33:43.397Z,101323.78
2022-11-03T09:36:11.277Z,101314.09
2022-11-03T09:38:39.124Z,101322.41
2022-11-03T09:41:18.562Z,101325.66
2022-11-03T09:43:57.839Z,101325.56
2022-11-03T09:46:28.669Z,101310.66
2022-11-03T09:48:57.271Z,101311.97
2022-11-03T09:51:27.540Z,101316.38
2022-11-03T09:54:02.135Z,101305.03
2022-11-03T09:56:30.831Z,101301.78
2022-11-03T09:59:00.154Z,101297.72
2022-11-03T10:01:28.234Z,101298.25
2022-11-03T10:04:00.305Z,101290.41
2022-11-03T10:06:29.431Z,101291.09
2022-11-03T10:08:57.305Z,101293.69
2022-11-03T10:11:25.197Z,101286.31
2022-11-03T10:13:56.608Z,101286.31
2022-11-03T10:16:26.511Z,101286.16
2022-11-03T10:18:54.600Z,101286.00
2022-11-03T10:21:34.193Z,101288.13
2022-11-03T10:24:01.990Z,101273.44
2022-11-03T10:26:35.757Z,101270.97
2022-11-03T10:29:09.950Z,101272.44
2022-11-03T10:31:42.281Z,101274.09
2022-11-03T10:34:37.717Z,101267.84
2022-11-03T10:37:25.659Z,101252.38
2022-11-03T10:39:55.698Z,101260.03
2022-11-03T10:42:29.268Z,101254.97
2022-11-03T10:45:23.027Z,101252.34
2022-11-03T10:48:07.199Z,101253.97
2022-11-03T10:50:35.260Z,101247.94
2022-11-03T10:53:03.906Z,101256.09
2022-11-03T10:55:32.316Z,101252.19
2022-11-03T10:58:00.278Z,101250.34
2022-11-03T11:00:28.090Z,101237.53
2022-11-03T11:03:00.469Z,101227.56
2022-11-03T11:05:28.770Z,101217.53
2022-11-03T11:07:56.953Z,101207.19
2022-11-03T11:10:27.107Z,101223.63
2022-11-03T11:13:18.138Z,101213.66
2022-11-03T11:15:47.331Z,101212.34
2022-11-03T11:18:30.343Z,101206.06
2022-11-03T11:21:02.719Z,101207.03
2022-11-03T11:23:30.490Z,101198.91
2022-11-03T11:26:10.575Z,101187.53
2022-11-03T11:28:41.262Z,101181.81
2022-11-03T11:31:32.796Z,101180.03
2022-11-03T11:34:09.819Z,101172.69
2022-11-03T11:36:39.795Z,101177.03
2022-11-03T11:39:20.435Z,101169.00
2022-11-03T11:42:09.700Z,101173.69
2022-11-03T11:44:45.973Z,101173.09
2022-11-03T11:47:43.929Z,101157.81
2022-11-03T11:50:14.454Z,101158.69
2022-11-03T11:52:49.838Z,101142.94
2022-11-03T11:55:42.384Z,101135.28
2022-11-03T11:58:18.548Z,101132.41
2022-11-03T12:01:19.947Z,101128.06
2022-11-03T12:03:48.688Z,101121.91
2022-11-03T12:06:16.890Z,101120.09
2022-11-03T12:08:44.773Z,101130.59
2022-11-03T12:11:13.901Z,101125.78
2022-11-03T12:13:54.039Z,101126.13
2022-11-03T12:16:36.467Z,101130.91
2022-11-03T12:19:34.171Z,101129.94
2022-11-03T12:22:04.066Z,101117.97
2022-11-03T12:24:31.960Z,101115.38
2022-11-03T12:27:01.180Z,101105.06
2022-11-03T12:29:29.392Z,101100.72
2022-11-03T12:31:57.292Z,101097.84
2022-11-03T12:34:25.338Z,101093.72
2022-11-03T12:36:56.187Z,101097.97
2022-11-03T12:39:24.348Z,101093.09
2022-11-03T12:41:52.143Z,101090.16
2022-11-03T12:44:20.003Z,101081.19
2022-11-03T12:46:48.022Z,101081.47
2022-11-03T12:49:15.764Z,101086.03
2022-11-03T12:51:44.414Z,101079.31
2022-11-03T12:54:12.193Z,101075.91
2022-11-03T12:56:41.045Z,101061.09
2022-11-03T12:59:09.428Z,101063.44
2022-11-03T13:01:37.902Z,101053.81
2022-11-03T13:04:06.469Z,101053.00
2022-11-03T13:06:34.786Z,101047.66
2022-11-03T13:09:02.852Z,101034.72
2022-11-03T13:11:49.184Z,101038.81
2022-11-03T13:14:17.139Z,101038.34
2022-11-03T13:16:45.031Z,101027.09
2022-11-03T13:19:13.037Z,101021.38
2022-11-03T13:21:42.746Z,101024.13
2022-11-03T13:24:10.755Z,101026.91
2022-11-03T13:26:38.929Z,101018.56
2022-11-03T13:29:08.376Z,101022.97
2022-11-03T13:31:37.789Z,101014.97
2022-11-03T13:34:06.832Z,101007.34
2022-11-03T13:36:38.291Z,101003.09
2022-11-03T13:39:06.342Z,100996.88
2022-11-03T13:41:34.875Z,100988.88
2022-11-03T13:44:02.861Z,100981.06
2022-11-03T13:46:30.871Z,100968.16
2022-11-03T13:51:47.392Z,100971.91
2022-11-03T13:59:52.201Z,100963.28
2022-11-03T14:05:11.282Z,100947.94
2022-11-03T14:07:39.381Z,100940.75
2022-11-03T14:10:07.694Z,100945.50
2022-11-03T14:12:36.402Z,100942.72
2022-11-03T14:15:07.809Z,100941.28
2022-11-03T14:17:36.273Z,100935.22
2022-11-03T14:20:05.746Z,100943.38
2022-11-03T14:22:33.999Z,100934.41
2022-11-03T14:25:02.670Z,100930.47
2022-11-03T14:27:30.647Z,100929.69
2022-11-03T14:29:58.601Z,100916.94
2022-11-03T14:32:26.977Z,100911.09
2022-11-03T14:34:54.908Z,100912.91
2022-11-03T14:37:25.618Z,100910.91
2022-11-03T14:39:54.530Z,100917.78
2022-11-03T14:42:22.371Z,100913.53
2022-11-03T14:44:50.424Z,100917.94
2022-11-03T14:47:21.828Z,100913.56
2022-11-03T14:49:49.892Z,100917.31
2022-11-03T14:52:18.026Z,100923.81
2022-11-03T14:54:45.909Z,100922.34
2022-11-03T14:57:13.840Z,100922.19
2022-11-03T14:59:42.410Z,100917.97
2022-11-03T15:02:10.751Z,100910.78
2022-11-03T15:04:38.797Z,100906.41
2022-11-03T15:07:06.883Z,100891.56
2022-11-03T15:09:34.713Z,100892.69
2022-11-03T15:12:02.657Z,100890.75
2022-11-03T15:14:30.580Z,100889.09
2022-11-03T15:16:58.542Z,100893.19
2022-11-03T15:19:26.487Z,100895.47
2022-11-03T15:21:54.581Z,100886.69
2022-11-03T15:27:11.081Z,100890.75
2022-11-03T15:29:38.867Z,100896.44
2022-11-03T15:32:06.987Z,100870.38
2022-11-03T15:34:35.967Z,100873.78
2022-11-03T15:37:03.830Z,100872.81
2022-11-03T15:39:31.794Z,100864.84
2022-11-03T15:42:00.412Z,100868.44
2022-11-03T15:44:28.293Z,100866.78
2022-11-03T15:46:56.122Z,100868.75
2022-11-03T15:49:24.140Z,100870.84
2022-11-03T15:51:52.176Z,100855.22
2022-11-03T15:54:19.991Z,100844.28
2022-11-03T15:56:48.012Z,100859.59
2022-11-03T15:59:16.229Z,100858.81
2022-11-03T16:01:44.410Z,100849.19
2022-11-03T16:04:12.398Z,100856.66
2022-11-03T16:07:06.356Z,100842.81
2022-11-03T16:09:28.269Z,100832.84
2022-11-03T16:11:56.275Z,100840.84
2022-11-03T16:14:24.256Z,100839.22
2022-11-03T16:16:52.056Z,100843.31
2022-11-03T16:19:20.043Z,100830.75
2022-11-03T16:21:47.902Z,100825.19
2022-11-03T16:24:15.966Z,100823.91
2022-11-03T16:26:44.759Z,100830.38
2022-11-03T16:29:12.793Z,100824.84
2022-11-03T16:31:40.731Z,100823.25
2022-11-03T16:34:08.793Z,100825.38
2022-11-03T16:36:37.151Z,100822.44
2022-11-03T16:39:05.308Z,100814.28
2022-11-03T16:41:33.656Z,100822.59
2022-11-03T16:44:04.400Z,100813.00
2022-11-03T16:46:32.325Z,100789.88
2022-11-03T16:51:33.326Z,100795.75
2022-11-03T16:54:04.576Z,100795.88
2022-11-03T16:56:32.569Z,100788.28
2022-11-03T16:59:00.516Z,100782.22
2022-11-03T17:01:29.802Z,100765.41
2022-11-03T17:03:58.064Z,100764.09
2022-11-03T17:06:25.938Z,100754.31
2022-11-03T17:08:54.065Z,100751.75
2022-11-03T17:11:36.296Z,100744.38
2022-11-03T17:14:07.047Z,100737.56
2022-11-03T17:16:35.318Z,100728.28
2022-11-03T17:19:03.793Z,100739.81
2022-11-03T17:21:32.207Z,100750.38
2022-11-03T17:24:00.423Z,100756.91
2022-11-03T17:26:43.059Z,100758.34
2022-11-03T17:29:16.358Z,100761.13
2022-11-03T17:31:45.214Z,100764.41
2022-11-03T17:34:18.667Z,100761.72
2022-11-03T17:36:46.661Z,100754.97
2022-11-03T17:39:16.962Z,100745.50
2022-11-03T17:41:45.938Z,100751.75
2022-11-03T17:44:17.357Z,100749.13
2022-11-03T17:46:48.152Z,100749.91
2022-11-03T17:49:17.846Z,100739.69
2022-11-03T17:52:33.030Z,100732.16
2022-11-03T17:56:31.992Z,100733.81
2022-11-03T17:59:54.376Z,100727.59
2022-11-03T18:02:28.819Z,100715.91
2022-11-03T18:06:21.153Z,100714.09
2022-11-03T18:08:30.922Z,100716.69
2022-11-03T18:12:05.501Z,100716.16
2022-11-03T18:15:17.658Z,100718.94
2022-11-03T18:17:51.143Z,100714.41
2022-11-03T18:20:23.029Z,100704.97
2022-11-03T18:22:51.119Z,100709.03
2022-11-03T18:25:21.441Z,100700.59
2022-11-03T18:27:49.491Z,100704.03
2022-11-03T18:30:17.600Z,100690.50
2022-11-03T18:32:46.451Z,100690.28
2022-11-03T18:35:27.565Z,100691.31
2022-11-03T18:37:56.715Z,100675.72
2022-11-03T18:40:24.826Z,100685.47
2022-11-03T18:42:53.073Z,100675.19
2022-11-03T18:45:21.994Z,100669.50
2022-11-03T18:47:50.035Z,100670.03
2022-11-03T18:50:19.209Z,100664.97
2022-11-03T18:52:49.527Z,100670.81
2022-11-03T18:55:19.231Z,100669.50
2022-11-03T18:57:47.618Z,100651.22
2022-11-03T19:00:49.715Z,100652.97
2022-11-03T19:04:18.245Z,100650.56
2022-11-03T19:07:23.922Z,100648.91
2022-11-03T19:10:08.773Z,100648.09
2022-11-03T19:12:40.876Z,100642.44
2022-11-03T19:15:30.783Z,100647.25
2022-11-03T19:18:07.588Z,100643.41
2022-11-03T19:20:36.049Z,100640.16
2022-11-03T19:23:04.711Z,100634.13
2022-11-03T19:25:32.889Z,100630.41
2022-11-03T19:28:01.064Z,100621.94
2022-11-03T19:30:28.965Z,100615.28
2022-11-03T19:32:58.231Z,100621.13
2022-11-03T19:35:33.136Z,100608.59
2022-11-03T19:38:05.574Z,100610.88
2022-11-03T19:40:33.942Z,100600.81
2022-11-03T19:43:01.868Z,100594.28
2022-11-03T19:45:29.684Z,100589.06
2022-11-03T19:50:51.910Z,100581.25
2022-11-03T19:53:33.457Z,100577.00
2022-11-03T19:56:01.645Z,100556.63
2022-11-03T19:58:29.920Z,100551.13
2022-11-03T20:00:58.347Z,100552.13
2022-11-03T20:03:26.773Z,100557.34
2022-11-03T20:05:57.013Z,100550.34
2022-11-03T20:08:27.925Z,100537.66
2022-11-03T20:10:56.504Z,100532.31
2022-11-03T20:13:29.056Z,100524.88
2022-11-03T20:16:01.354Z,100502.19
2022-11-03T20:18:29.807Z,100519.78
2022-11-03T20:21:04.488Z,100513.44
2022-11-03T20:23:35.461Z,100516.88
2022-11-03T20:26:03.731Z,100508.88
2022-11-03T20:28:36.428Z,100493.91
2022-11-03T20:31:08.150Z,100485.28
2022-11-03T20:33:36.402Z,100486.13
2022-11-03T20:36:04.956Z,100490.03
2022-11-03T20:38:33.583Z,100495.03
2022-11-03T20:41:07.148Z,100489.59
2022-11-03T20:43:41.874Z,100473.59
2022-11-03T20:46:23.810Z,100472.19
2022-11-03T20:48:52.812Z,100462.09
2022-11-03T20:51:24.180Z,100460.75
2022-11-03T20:53:52.879Z,100452.50
2022-11-03T20:56:27.079Z,100451.81
2022-11-03T20:58:57.590Z,100453.28
2022-11-03T21:01:33.487Z,100447.44
2022-11-03T21:04:03.491Z,100436.41
2022-11-03T21:06:33.043Z,100435.53
2022-11-03T21:09:04.974Z,100436.88
2022-11-03T21:11:39.909Z,100424.22
2022-11-03T21:14:30.004Z,100397.44
2022-11-03T21:17:16.636Z,100394.31
2022-11-03T21:20:02.218Z,100378.56
2022-11-03T21:22:53.937Z,100378.41
2022-11-03T21:25:24.295Z,100380.75
2022-11-03T21:27:54.470Z,100388.63
2022-11-03T21:30:22.775Z,100394.50
2022-11-03T21:32:51.010Z,100373.19
2022-11-03T21:35:21.773Z,100364.13
2022-11-03T21:37:49.763Z,100365.19
2022-11-03T21:40:18.248Z,100371.28
2022-11-03T21:43:04.942Z,100364.78
2022-11-03T21:45:33.409Z,100358.09
2022-11-03T21:48:20.606Z,100359.19
2022-11-03T21:50:49.289Z,100339.94
2022-11-03T21:53:17.759Z,100312.16
2022-11-03T21:55:53.785Z,100287.81
2022-11-03T21:58:21.896Z,100282.78
2022-11-03T22:00:50.033Z,100290.88
2022-11-03T22:03:18.156Z,100289.88
2022-11-03T22:05:46.106Z,100288.09
2022-11-03T22:08:13.897Z,100284.53
2022-11-03T22:10:41.801Z,100274.66
2022-11-03T22:13:10.120Z,100273.66
2022-11-03T22:15:57.017Z,100264.78
2022-11-03T22:18:25.685Z,100263.94
2022-11-03T22:21:16.424Z,100251.78
2022-11-03T22:24:02.863Z,100245.63
2022-11-03T22:26:49.118Z,100241.22
2022-11-03T22:29:35.418Z,100245.25
2022-11-03T22:32:03.295Z,100220.63
2022-11-03T22:34:49.615Z,100219.59
2022-11-03T22:37:17.434Z,100208.09
2022-11-03T22:40:04.033Z,100215.56
2022-11-03T22:42:50.744Z,100205.16
2022-11-03T22:45:37.183Z,100209.88
2022-11-03T22:48:05.587Z,100185.69
2022-11-03T22:50:33.652Z,100175.63
2022-11-03T22:53:21.435Z,100153.56
2022-11-03T22:55:49.339Z,100159.56
2022-11-03T22:58:17.167Z,100153.88
2022-11-03T23:00:45.532Z,100153.41
2022-11-03T23:03:14.362Z,100149.19
2022-11-03T23:05:43.035Z,100147.06
2022-11-03T23:08:10.917Z,100144.13
2022-11-03T23:10:38.848Z,100140.75
2022-11-03T23:13:07.028Z,100123.38
2022-11-03T23:15:35.194Z,100117.06
2022-11-03T23:18:23.517Z,100102.13
2022-11-03T23:21:09.429Z,100094.97
2022-11-03T23:23:57.819Z,100082.50
2022-11-03T23:26:27.135Z,100071.94
2022-11-03T23:28:55.231Z,100071.47
2022-11-03T23:31:23.063Z,100061.44
2022-11-03T23:33:51.102Z,100069.16
2022-11-03T23:36:19.037Z,100061.91
2022-11-03T23:38:46.887Z,100053.75
2022-11-03T23:41:17.139Z,100043.69
2022-11-03T23:43:47.635Z,100030.72
2022-11-03T23:46:37.393Z,100029.22
2022-11-03T23:49:05.473Z,100012.91
2022-11-03T23:51:35.444Z,100010.25
2022-11-03T23:54:06.758Z,100000.09
2022-11-03T23:56:56.004Z,100003.31
2022-11-03T23:59:24.592Z,100001.25
